Walsenburg, CO (81089)

10:14 AM MST on January 31, 2015 (GMT -0700)
Peakview School | Change Station
CLOSE
Current Station
Personal Weather Station
Location: Walsenburg, CO
Elevation: 6296 ft
Nearby Weather Stations

Elev 6296 ft 37.63 °N, 104.79 °W | Updated 4 minutes ago

Overcast
Overcast
43.7 °F
Feels Like 41 °F
N
5.0
Wind Variable Wind from SE
Gusts 6.9 mph

Today
High -- | Low -- °F
--% Chance of Precip.
Yesterday
High -- | Low -- °F
Precip. -- in
7:04 AM 5:22 PM
Waxing Gibbous, 90% visible
Pressure 29.84 in
Visibility 10.0 miles
Clouds Overcast 3000 ft
Windchill 41 °F
Dew Point 43 °F
Humidity 97%
Rainfall -999.00 in
Snow Depth Not available.
UV 1 out of 12
Pollen .30 out of 12
Air Quality Not available.
Flu Activity Not available.
METAR KTAD 311654Z AUTO 00000KT 10SM OVC030 04/M02 A2986 RMK AO2 SLP104 T00391017

More Conditions Fewer Conditions

Pressure 29.84 in
Visibility 10.0 miles
Clouds Overcast 3000 ft
Windchill 41 °F
Dew Point 43 °F
Humidity 97%
Rainfall -999.00 in
Snow Depth Not available.
UV 1 out of 12
Pollen .30 out of 12
Air Quality Not available.
Flu Activity Not available.
METAR KTAD 311654Z AUTO 00000KT 10SM OVC030 04/M02 A2986 RMK AO2 SLP104 T00391017

More Conditions Fewer Conditions

10-Day Weather Forecast

Almanac

Astronomy

Jan. 31, 2015 Rise Set
Actual Time
Civil Twilight
Nautical Twilight
Astronomical Twilight
Moon
Length of Visible Light
Length of Day
Tomorrow will be .
, % of the Moon is Illuminated

Today's Extremes

State Highs State Lows

Community

WunderPhotos

Upload Photos

1,792,122 photos uploaded!

WunderBlogs® & News

Nearby

Air Quality

  Air Quality AQ Index Pollutant
Not available.

Snow Depth

Station Depth Elevation

Earthquake Activity

City Distance Mag. Time & Date
Minimum magnitude displayed is 2.5.

Coastal Water Temperatures

Place Temperature

Nearby Weather Stations